createdAt,value
2019-05-02T00:02:28.922Z,9.70
2019-05-02T00:04:51.046Z,9.70
2019-05-02T00:07:20.129Z,9.70
2019-05-02T00:09:48.489Z,9.70
2019-05-02T00:12:09.710Z,9.70
2019-05-02T00:14:35.695Z,9.70
2019-05-02T00:17:01.793Z,9.70
2019-05-02T00:19:27.806Z,9.70
2019-05-02T00:21:53.763Z,9.70
2019-05-02T00:24:20.477Z,9.70
2019-05-02T00:26:46.458Z,9.70
2019-05-02T00:29:12.457Z,9.70
2019-05-02T00:31:41.999Z,9.70
2019-05-02T00:34:04.506Z,9.70
2019-05-02T00:36:30.488Z,9.80
2019-05-02T00:38:56.490Z,9.70
2019-05-02T00:41:22.459Z,9.70
2019-05-02T00:43:49.205Z,9.70
2019-05-02T00:46:15.207Z,9.70
2019-05-02T00:48:41.208Z,9.70
2019-05-02T00:51:07.173Z,9.70
2019-05-02T00:53:33.169Z,9.70
2019-05-02T00:55:59.151Z,9.70
2019-05-02T00:58:27.241Z,9.70
2019-05-02T01:00:53.167Z,9.70
2019-05-02T01:03:18.017Z,9.70
2019-05-02T01:05:44.725Z,9.70
2019-05-02T01:08:10.761Z,9.70
2019-05-02T01:10:36.747Z,9.80
2019-05-02T01:13:02.756Z,9.70
2019-05-02T01:15:28.721Z,9.80
2019-05-02T01:17:55.438Z,9.80
2019-05-02T01:20:22.155Z,9.80
2019-05-02T01:22:52.310Z,9.70
2019-05-02T01:25:15.796Z,9.70
2019-05-02T01:27:41.236Z,9.70
2019-05-02T01:30:07.401Z,9.70
2019-05-02T01:32:32.375Z,9.70
2019-05-02T01:34:58.420Z,9.60
2019-05-02T01:37:24.413Z,9.70
2019-05-02T01:39:50.423Z,9.70
2019-05-02T01:42:16.410Z,9.70
2019-05-02T01:44:42.413Z,9.70
2019-05-02T01:47:08.377Z,9.70
2019-05-02T01:49:35.117Z,9.70
2019-05-02T01:52:01.824Z,9.70
2019-05-02T01:54:27.826Z,9.70
2019-05-02T01:56:53.805Z,9.70
2019-05-02T01:59:19.863Z,9.70
2019-05-02T02:01:45.837Z,9.70
2019-05-02T02:04:16.295Z,9.70
2019-05-02T02:06:38.736Z,9.70
2019-05-02T02:09:08.415Z,9.70
2019-05-02T02:11:33.875Z,9.70
2019-05-02T02:13:56.011Z,9.70
2019-05-02T02:16:22.014Z,9.70
2019-05-02T02:18:47.990Z,9.70
2019-05-02T02:21:13.986Z,9.70
2019-05-02T02:23:39.958Z,9.70
2019-05-02T02:26:11.397Z,9.70
2019-05-02T02:28:33.180Z,9.70
2019-05-02T02:31:04.766Z,9.70
2019-05-02T02:33:24.804Z,9.70
2019-05-02T02:35:52.177Z,9.70
2019-05-02T02:38:16.847Z,9.70
2019-05-02T02:40:42.877Z,9.70
2019-05-02T02:43:30.336Z,9.70
2019-05-02T02:45:34.930Z,9.70
2019-05-02T02:48:02.548Z,9.70
2019-05-02T02:50:26.936Z,9.70
2019-05-02T02:52:53.631Z,9.70
2019-05-02T02:55:22.121Z,9.70
2019-05-02T02:57:46.411Z,9.70
2019-05-02T03:00:12.408Z,9.70
2019-05-02T03:02:47.513Z,9.70
2019-05-02T03:05:04.423Z,9.70
2019-05-02T03:07:31.165Z,9.70
2019-05-02T03:09:59.402Z,9.70
2019-05-02T03:12:23.216Z,9.70
2019-05-02T03:14:49.544Z,9.80
2019-05-02T03:17:20.293Z,9.70
2019-05-02T03:19:41.304Z,9.70
2019-05-02T03:22:07.338Z,9.70
2019-05-02T03:24:36.423Z,9.70
2019-05-02T03:27:00.199Z,9.80
2019-05-02T03:29:39.689Z,9.70
2019-05-02T03:32:11.481Z,9.80
2019-05-02T03:34:18.316Z,9.70
2019-05-02T03:36:45.078Z,9.70
2019-05-02T03:39:15.400Z,9.70
2019-05-02T03:41:38.571Z,9.70
2019-05-02T03:44:11.039Z,9.70
2019-05-02T03:46:32.039Z,9.70
2019-05-02T03:49:06.805Z,9.70
2019-05-02T03:51:25.474Z,9.70
2019-05-02T03:53:50.831Z,9.70
2019-05-02T03:56:17.566Z,9.70
2019-05-02T03:58:54.965Z,9.70
2019-05-02T04:01:10.341Z,9.70
2019-05-02T04:03:40.967Z,9.70
2019-05-02T04:06:03.127Z,9.70
2019-05-02T04:08:29.095Z,9.70
2019-05-02T04:10:59.338Z,9.70
2019-05-02T04:13:21.114Z,9.70
2019-05-02T04:15:47.076Z,9.70
2019-05-02T04:18:15.552Z,9.80
2019-05-02T04:20:43.567Z,9.80
2019-05-02T04:23:05.159Z,9.80
2019-05-02T04:25:34.035Z,9.80
2019-05-02T04:27:57.951Z,9.80
2019-05-02T04:30:23.919Z,9.80
2019-05-02T04:32:55.814Z,9.80
2019-05-02T04:35:15.986Z,9.80
2019-05-02T04:37:43.864Z,9.90
2019-05-02T04:40:12.181Z,9.90
2019-05-02T04:42:34.806Z,9.90
2019-05-02T04:45:21.221Z,9.90
2019-05-02T04:47:29.059Z,9.90
2019-05-02T04:49:53.559Z,9.90
2019-05-02T04:52:21.349Z,9.90
2019-05-02T04:54:48.610Z,9.90
2019-05-02T04:57:12.414Z,9.90
2019-05-02T04:59:39.500Z,9.90
2019-05-02T05:02:04.471Z,9.80
2019-05-02T05:04:33.463Z,10.00
2019-05-02T05:07:00.933Z,10.00
2019-05-02T05:09:23.312Z,10.00
2019-05-02T05:11:49.332Z,10.10
2019-05-02T05:14:17.845Z,10.10
2019-05-02T05:16:45.506Z,10.10
2019-05-02T05:19:07.712Z,10.10
2019-05-02T05:21:34.214Z,10.20
2019-05-02T05:24:01.511Z,10.20
2019-05-02T05:26:27.630Z,10.20
2019-05-02T05:28:52.313Z,10.20
2019-05-02T05:31:23.799Z,10.30
2019-05-02T05:33:45.098Z,10.30
2019-05-02T05:36:11.070Z,10.40
2019-05-02T05:38:40.300Z,10.40
2019-05-02T05:41:08.256Z,10.40
2019-05-02T05:43:29.268Z,10.50
2019-05-02T05:46:06.075Z,10.50
2019-05-02T05:48:22.037Z,10.50
2019-05-02T05:50:48.752Z,10.60
2019-05-02T05:53:17.102Z,10.60
2019-05-02T05:55:40.819Z,10.60
2019-05-02T05:58:13.117Z,10.70
2019-05-02T06:00:33.629Z,10.60
2019-05-02T06:03:10.296Z,10.70
2019-05-02T06:05:27.607Z,10.80
2019-05-02T06:07:52.498Z,10.70
2019-05-02T06:10:18.482Z,10.70
2019-05-02T06:12:44.472Z,10.80
2019-05-02T06:15:10.478Z,10.80
2019-05-02T06:17:36.473Z,10.80
2019-05-02T06:20:03.214Z,10.80
2019-05-02T06:22:29.931Z,10.80
2019-05-02T06:24:55.935Z,10.80
2019-05-02T06:27:26.031Z,10.90
2019-05-02T06:29:51.233Z,10.90
2019-05-02T06:32:18.816Z,10.90
2019-05-02T06:34:46.526Z,10.90
2019-05-02T06:37:08.149Z,11.00
2019-05-02T06:39:33.260Z,11.10
2019-05-02T06:41:58.999Z,11.10
2019-05-02T06:44:25.473Z,11.10
2019-05-02T06:46:51.040Z,11.10
2019-05-02T06:49:17.031Z,11.10
2019-05-02T06:51:43.761Z,11.20
2019-05-02T06:54:10.516Z,11.20
2019-05-02T06:56:37.256Z,11.20
2019-05-02T06:59:04.005Z,11.20
2019-05-02T07:01:29.991Z,11.20
2019-05-02T07:03:56.027Z,11.30
2019-05-02T07:06:22.301Z,11.30
2019-05-02T07:08:48.666Z,11.40
2019-05-02T07:11:14.735Z,11.40
2019-05-02T07:13:42.201Z,11.50
2019-05-02T07:16:10.470Z,11.60
2019-05-02T07:18:32.811Z,11.60
2019-05-02T07:20:59.565Z,11.80
2019-05-02T07:23:25.557Z,11.80
2019-05-02T07:25:51.564Z,11.90
2019-05-02T07:28:18.301Z,12.10
2019-05-02T07:30:44.321Z,12.10
2019-05-02T07:33:10.310Z,12.10
2019-05-02T07:35:36.316Z,12.10
2019-05-02T07:38:02.309Z,12.10
2019-05-02T07:40:28.315Z,12.00
2019-05-02T07:42:54.298Z,12.00
2019-05-02T07:45:20.290Z,11.90
2019-05-02T07:47:46.269Z,11.90
2019-05-02T07:50:12.270Z,11.90
2019-05-02T07:52:40.897Z,12.00
2019-05-02T07:55:06.661Z,12.10
2019-05-02T07:57:32.089Z,12.10
2019-05-02T08:00:00.612Z,12.20
2019-05-02T08:02:25.172Z,12.20
2019-05-02T08:04:49.208Z,12.30
2019-05-02T08:07:16.318Z,12.40
2019-05-02T08:09:43.983Z,12.50
2019-05-02T08:12:07.305Z,12.60
2019-05-02T08:14:34.508Z,12.60
2019-05-02T08:17:05.827Z,12.70
2019-05-02T08:19:25.376Z,12.90
2019-05-02T08:21:51.385Z,13.10
2019-05-02T08:24:17.500Z,13.10
2019-05-02T08:26:43.491Z,13.30
2019-05-02T08:29:09.464Z,13.50
2019-05-02T08:31:35.491Z,13.80
2019-05-02T08:34:05.225Z,14.10
2019-05-02T08:36:27.530Z,14.30
2019-05-02T08:38:55.308Z,14.80
2019-05-02T08:41:20.271Z,15.10
2019-05-02T08:43:46.241Z,15.10
2019-05-02T08:46:14.536Z,15.20
2019-05-02T08:48:41.734Z,15.30
2019-05-02T08:51:03.759Z,15.40
2019-05-02T08:53:29.753Z,15.40
2019-05-02T08:55:55.775Z,15.20
2019-05-02T08:58:21.745Z,15.30
2019-05-02T09:00:47.782Z,15.40
2019-05-02T09:03:13.776Z,15.60
2019-05-02T09:05:45.509Z,17.70
2019-05-02T09:08:09.153Z,17.60
2019-05-02T09:10:32.562Z,17.90
2019-05-02T09:12:59.307Z,17.70
2019-05-02T09:15:26.018Z,17.40
2019-05-02T09:17:56.306Z,17.40
2019-05-02T09:20:20.858Z,17.70
2019-05-02T09:22:46.641Z,17.70
2019-05-02T09:25:12.590Z,17.30
2019-05-02T09:27:36.885Z,17.00
2019-05-02T09:30:02.927Z,16.30
2019-05-02T09:32:28.924Z,15.90
2019-05-02T09:35:00.839Z,15.70
2019-05-02T09:37:22.757Z,15.70
2019-05-02T09:39:47.783Z,15.60
2019-05-02T09:42:15.583Z,15.50
2019-05-02T09:44:39.827Z,15.40
2019-05-02T09:47:05.822Z,15.20
2019-05-02T09:49:32.447Z,15.00
2019-05-02T09:51:59.755Z,14.80
2019-05-02T09:54:23.881Z,14.70
2019-05-02T09:56:49.873Z,14.50
2019-05-02T09:59:29.197Z,14.20
2019-05-02T10:01:42.637Z,14.20
2019-05-02T10:04:09.390Z,14.10
2019-05-02T10:06:35.361Z,14.10
2019-05-02T10:09:02.784Z,14.00
2019-05-02T10:11:27.374Z,13.90
2019-05-02T10:13:55.382Z,13.90
2019-05-02T10:16:23.478Z,13.90
2019-05-02T10:18:45.471Z,13.90
2019-05-02T10:21:13.470Z,13.90
2019-05-02T10:23:37.498Z,13.90
2019-05-02T10:26:03.494Z,13.90
2019-05-02T10:28:31.739Z,13.60
2019-05-02T10:30:56.830Z,13.60
2019-05-02T10:33:22.625Z,13.50
2019-05-02T10:35:48.319Z,13.40
2019-05-02T10:38:19.089Z,13.40
2019-05-02T10:40:42.354Z,13.30
2019-05-02T10:43:06.437Z,13.40
2019-05-02T10:45:32.426Z,13.40
2019-05-02T10:47:58.403Z,13.40
2019-05-02T10:50:24.406Z,13.40
2019-05-02T10:52:50.372Z,13.50
2019-05-02T10:55:17.119Z,13.30
2019-05-02T10:57:43.835Z,13.20
2019-05-02T11:00:12.045Z,13.20
2019-05-02T11:02:36.651Z,13.20
2019-05-02T11:05:02.804Z,13.10
2019-05-02T11:07:28.701Z,13.00
2019-05-02T11:09:57.219Z,13.00
2019-05-02T11:12:25.506Z,13.20
2019-05-02T11:14:47.616Z,13.10
2019-05-02T11:17:17.633Z,13.30
2019-05-02T11:19:39.651Z,13.40
2019-05-02T11:22:05.604Z,13.60
2019-05-02T11:24:31.659Z,13.80
2019-05-02T11:26:57.614Z,13.90
2019-05-02T11:29:23.607Z,13.90
2019-05-02T11:31:49.605Z,14.00
2019-05-02T11:34:15.592Z,14.20
2019-05-02T11:36:41.985Z,14.20
2019-05-02T11:39:16.437Z,14.10
2019-05-02T11:41:34.413Z,13.90
2019-05-02T11:44:00.405Z,13.90
2019-05-02T11:46:26.433Z,13.90
2019-05-02T11:48:56.283Z,13.90
2019-05-02T11:51:18.444Z,14.00
2019-05-02T11:53:44.428Z,14.20
2019-05-02T11:56:11.666Z,14.30
2019-05-02T11:58:40.820Z,14.50
2019-05-02T12:01:05.432Z,14.80
2019-05-02T12:03:35.580Z,14.80
2019-05-02T12:05:55.324Z,14.90
2019-05-02T12:08:22.618Z,14.90
2019-05-02T12:10:47.383Z,15.10
2019-05-02T12:13:15.928Z,15.20
2019-05-02T12:15:42.131Z,15.20
2019-05-02T12:18:05.447Z,15.20
2019-05-02T12:20:33.937Z,15.30
2019-05-02T12:22:57.530Z,15.20
2019-05-02T12:25:24.293Z,15.20
2019-05-02T12:27:52.702Z,15.00
2019-05-02T12:30:17.077Z,15.00
2019-05-02T12:32:43.030Z,15.00
2019-05-02T12:35:09.041Z,15.10
2019-05-02T12:37:35.034Z,15.20
2019-05-02T12:40:02.727Z,15.60
2019-05-02T12:42:27.387Z,15.90
2019-05-02T12:44:53.327Z,16.40
2019-05-02T12:47:19.173Z,16.70
2019-05-02T12:49:45.177Z,16.40
2019-05-02T12:52:12.886Z,16.40
2019-05-02T12:54:37.198Z,16.10
2019-05-02T12:57:03.935Z,16.00
2019-05-02T12:59:32.074Z,15.90
2019-05-02T13:01:56.706Z,15.60
2019-05-02T13:04:23.061Z,15.60
2019-05-02T13:06:49.485Z,15.50
2019-05-02T13:09:15.446Z,15.50
2019-05-02T13:11:44.463Z,15.40
2019-05-02T13:14:18.602Z,15.50
2019-05-02T13:16:33.726Z,15.50
2019-05-02T13:19:02.899Z,15.60
2019-05-02T13:21:39.012Z,15.50
2019-05-02T13:23:52.441Z,15.30
2019-05-02T13:26:21.789Z,15.30
2019-05-02T13:28:45.206Z,15.00
2019-05-02T13:31:11.757Z,15.00
2019-05-02T13:33:37.265Z,14.90
2019-05-02T13:36:03.236Z,14.60
2019-05-02T13:38:29.238Z,14.40
2019-05-02T13:40:55.219Z,14.20
2019-05-02T13:43:21.822Z,14.10
2019-05-02T13:45:47.274Z,14.30
2019-05-02T13:48:13.321Z,14.50
2019-05-02T13:50:39.329Z,14.80
2019-05-02T13:53:06.083Z,15.10
2019-05-02T13:55:32.052Z,15.00
2019-05-02T13:57:58.033Z,15.20
2019-05-02T14:00:24.018Z,15.20
2019-05-02T14:02:51.871Z,15.30
2019-05-02T14:05:16.067Z,15.50
2019-05-02T14:07:42.864Z,15.70
2019-05-02T14:10:08.838Z,15.60
2019-05-02T14:12:35.581Z,15.50
2019-05-02T14:15:03.014Z,15.40
2019-05-02T14:17:28.323Z,15.30
2019-05-02T14:20:07.437Z,15.40
2019-05-02T14:22:20.329Z,15.30
2019-05-02T14:24:46.326Z,15.20
2019-05-02T14:27:17.099Z,14.90
2019-05-02T14:29:39.155Z,14.90
2019-05-02T14:32:05.145Z,14.60
2019-05-02T14:34:32.860Z,14.40
2019-05-02T14:36:59.365Z,14.30
2019-05-02T14:39:23.243Z,14.10
2019-05-02T14:41:49.225Z,14.00
2019-05-02T14:44:18.017Z,13.90
2019-05-02T14:46:42.514Z,13.80
2019-05-02T14:49:07.320Z,13.70
2019-05-02T14:51:36.493Z,13.70
2019-05-02T14:54:03.731Z,13.70
2019-05-02T14:56:25.345Z,13.70
2019-05-02T14:58:52.838Z,13.70
2019-05-02T15:01:22.586Z,13.70
2019-05-02T15:03:43.470Z,13.80
2019-05-02T15:06:11.310Z,13.70
2019-05-02T15:08:36.712Z,13.60
2019-05-02T15:11:03.425Z,13.60
2019-05-02T15:13:32.281Z,13.60
2019-05-02T15:15:54.414Z,13.50
2019-05-02T15:18:20.368Z,13.40
2019-05-02T15:20:47.120Z,13.40
2019-05-02T15:23:19.553Z,13.50
2019-05-02T15:25:42.181Z,13.50
2019-05-02T15:28:06.708Z,13.60
2019-05-02T15:30:37.253Z,13.60
2019-05-02T15:32:58.800Z,13.80
2019-05-02T15:35:26.848Z,13.80
2019-05-02T15:37:51.789Z,13.80
2019-05-02T15:42:43.693Z,13.90
2019-05-02T15:45:09.711Z,13.90
2019-05-02T15:47:36.960Z,13.80
2019-05-02T15:50:03.000Z,13.80
2019-05-02T15:52:28.575Z,13.80
2019-05-02T15:54:59.931Z,13.80
2019-05-02T15:57:24.203Z,13.90
2019-05-02T15:59:46.776Z,13.80
2019-05-02T16:02:17.726Z,13.70
2019-05-02T16:04:41.557Z,13.70
2019-05-02T16:07:08.323Z,13.60
2019-05-02T16:09:32.960Z,13.70
2019-05-02T16:11:57.787Z,13.50
2019-05-02T16:14:27.079Z,13.60
2019-05-02T16:16:52.183Z,13.50
2019-05-02T16:19:27.030Z,13.50
2019-05-02T16:21:43.420Z,13.40
2019-05-02T16:24:12.101Z,13.40
2019-05-02T16:26:42.077Z,13.10
2019-05-02T16:29:02.964Z,13.10
2019-05-02T16:31:28.352Z,12.80
2019-05-02T16:33:57.391Z,12.50
2019-05-02T16:36:25.966Z,12.50
2019-05-02T16:38:46.574Z,12.30
2019-05-02T16:41:12.579Z,12.40
2019-05-02T16:43:38.549Z,12.40
2019-05-02T16:46:06.724Z,12.50
2019-05-02T16:48:37.466Z,12.50
2019-05-02T16:50:56.716Z,12.40
2019-05-02T16:53:26.106Z,12.00
2019-05-02T16:55:48.807Z,12.00
2019-05-02T16:58:15.526Z,11.90
2019-05-02T17:00:44.656Z,11.90
2019-05-02T17:03:07.545Z,11.80
2019-05-02T17:05:33.526Z,11.70
2019-05-02T17:07:59.550Z,11.70
2019-05-02T17:10:25.584Z,11.70
2019-05-02T17:12:55.430Z,11.70
2019-05-02T17:15:18.446Z,11.50
2019-05-02T17:17:45.194Z,11.40
2019-05-02T17:20:12.923Z,11.40
2019-05-02T17:22:37.266Z,11.30
2019-05-02T17:25:10.087Z,11.20
2019-05-02T17:27:36.112Z,11.10
2019-05-02T17:30:03.733Z,11.20
2019-05-02T17:32:28.840Z,11.30
2019-05-02T17:34:54.997Z,11.20
2019-05-02T17:37:21.650Z,11.20
2019-05-02T17:39:47.076Z,11.00
2019-05-02T17:42:17.008Z,11.00
2019-05-02T17:44:41.471Z,10.90
2019-05-02T17:47:06.013Z,10.90
2019-05-02T17:49:36.709Z,10.90
2019-05-02T17:52:05.449Z,10.80
2019-05-02T17:54:26.251Z,10.70
2019-05-02T17:56:52.154Z,10.60
2019-05-02T17:59:17.723Z,10.60
2019-05-02T18:01:44.483Z,10.50
2019-05-02T18:04:12.552Z,10.50
2019-05-02T18:06:36.577Z,10.50
2019-05-02T18:09:02.617Z,10.50
2019-05-02T18:11:29.594Z,10.40
2019-05-02T18:13:55.396Z,10.30
2019-05-02T18:16:22.155Z,10.10
2019-05-02T18:18:48.186Z,10.10
2019-05-02T18:21:17.297Z,10.10
2019-05-02T18:23:42.670Z,10.10
2019-05-02T18:26:07.086Z,10.10
2019-05-02T18:28:33.084Z,10.20
2019-05-02T18:31:04.445Z,10.20
2019-05-02T18:33:25.841Z,10.20
2019-05-02T18:35:52.709Z,10.10
2019-05-02T18:38:20.906Z,10.10
2019-05-02T18:40:46.245Z,10.00
2019-05-02T18:43:13.086Z,10.00
2019-05-02T18:45:39.050Z,9.90
2019-05-02T18:48:06.965Z,9.90
2019-05-02T18:50:31.948Z,9.90
2019-05-02T18:52:58.135Z,9.90
2019-05-02T18:55:26.090Z,9.80
2019-05-02T18:57:52.374Z,9.80
2019-05-02T19:00:17.004Z,9.80
2019-05-02T19:02:42.985Z,9.90
2019-05-02T19:05:13.507Z,9.80
2019-05-02T19:07:35.946Z,9.80
2019-05-02T19:10:05.715Z,9.80
2019-05-02T19:12:27.927Z,9.80
2019-05-02T19:14:57.524Z,9.80
2019-05-02T19:17:21.951Z,9.80
2019-05-02T19:19:46.833Z,9.80
2019-05-02T19:22:16.820Z,9.80
2019-05-02T19:24:39.609Z,9.80
2019-05-02T19:27:05.627Z,9.80
2019-05-02T19:29:31.977Z,9.80
2019-05-02T19:31:57.670Z,9.80
2019-05-02T19:34:26.804Z,9.90
2019-05-02T19:36:49.705Z,9.90
2019-05-02T19:39:15.695Z,9.90
2019-05-02T19:41:44.133Z,9.90
2019-05-02T19:44:07.784Z,9.90
2019-05-02T19:46:38.540Z,9.80
2019-05-02T19:49:02.134Z,9.80
2019-05-02T19:51:28.161Z,9.80
2019-05-02T19:53:59.559Z,9.80
2019-05-02T19:56:19.469Z,9.80
2019-05-02T19:58:46.715Z,9.80
2019-05-02T20:01:12.686Z,9.70
2019-05-02T20:03:39.025Z,9.70
2019-05-02T20:06:06.247Z,9.70
2019-05-02T20:08:32.610Z,9.60
2019-05-02T20:10:58.703Z,9.60
2019-05-02T20:13:28.089Z,9.60
2019-05-02T20:15:52.275Z,9.60
2019-05-02T20:18:16.841Z,9.60
2019-05-02T20:20:43.600Z,9.60
2019-05-02T20:23:17.915Z,9.50
2019-05-02T20:25:39.113Z,9.50
2019-05-02T20:28:03.111Z,9.50
2019-05-02T20:30:29.950Z,9.40
2019-05-02T20:32:55.928Z,9.40
2019-05-02T20:35:22.692Z,9.40
2019-05-02T20:37:48.026Z,9.40
2019-05-02T20:40:14.063Z,9.40
2019-05-02T20:42:41.837Z,9.40
2019-05-02T20:45:06.211Z,9.30
2019-05-02T20:47:32.236Z,9.30
2019-05-02T20:49:58.292Z,9.30
2019-05-02T20:52:24.297Z,9.20
2019-05-02T20:54:52.202Z,9.10
2019-05-02T20:57:16.454Z,9.10
2019-05-02T20:59:42.465Z,9.10
2019-05-02T21:02:08.489Z,9.10
2019-05-02T21:04:34.511Z,9.00
2019-05-02T21:07:02.028Z,9.10
2019-05-02T21:09:27.348Z,9.00
2019-05-02T21:11:54.145Z,9.00
2019-05-02T21:14:21.668Z,9.00
2019-05-02T21:16:46.277Z,8.90
2019-05-02T21:19:12.497Z,8.90
2019-05-02T21:21:40.193Z,8.90
2019-05-02T21:24:05.252Z,8.90
2019-05-02T21:26:32.801Z,8.90
2019-05-02T21:28:58.130Z,9.00
2019-05-02T21:31:24.190Z,8.90
2019-05-02T21:33:51.902Z,9.10
2019-05-02T21:36:16.304Z,9.00
2019-05-02T21:38:42.808Z,9.00
2019-05-02T21:41:08.398Z,9.00
2019-05-02T21:43:34.409Z,9.00
2019-05-02T21:46:02.257Z,9.10
2019-05-02T21:48:26.536Z,9.00
2019-05-02T21:50:52.546Z,9.00
2019-05-02T21:53:18.591Z,9.00
2019-05-02T21:55:44.685Z,9.00
2019-05-02T21:58:12.102Z,9.00
2019-05-02T22:00:37.543Z,9.00
2019-05-02T22:03:03.589Z,9.00
2019-05-02T22:05:31.636Z,9.00
2019-05-02T22:07:55.745Z,9.00
2019-05-02T22:10:22.738Z,9.00
2019-05-02T22:12:47.859Z,9.00
2019-05-02T22:15:13.915Z,9.00
2019-05-02T22:17:41.526Z,9.00
2019-05-02T22:20:06.039Z,8.90
2019-05-02T22:22:34.322Z,9.00
2019-05-02T22:24:58.133Z,8.90
2019-05-02T22:27:24.155Z,9.00
2019-05-02T22:29:52.360Z,9.00
2019-05-02T22:32:16.264Z,8.90
2019-05-02T22:34:43.000Z,8.90
2019-05-02T22:37:08.411Z,8.90
2019-05-02T22:39:34.467Z,8.90
2019-05-02T22:42:01.923Z,8.80
2019-05-02T22:44:27.331Z,8.80
2019-05-02T22:46:53.341Z,8.80
2019-05-02T22:49:19.425Z,8.70
2019-05-02T22:51:46.201Z,8.70
2019-05-02T22:54:24.251Z,8.70
2019-05-02T22:56:38.281Z,8.70
2019-05-02T22:59:04.329Z,8.60
2019-05-02T23:01:32.257Z,8.60
2019-05-02T23:03:56.450Z,8.70
2019-05-02T23:06:22.464Z,8.70
2019-05-02T23:08:48.482Z,8.60
2019-05-02T23:11:14.509Z,8.60
2019-05-02T23:13:42.249Z,8.50
2019-05-02T23:16:07.339Z,8.40
2019-05-02T23:18:34.135Z,8.30
2019-05-02T23:21:02.000Z,8.30
2019-05-02T23:23:27.098Z,8.10
2019-05-02T23:25:53.133Z,8.00
2019-05-02T23:28:19.184Z,7.90
2019-05-02T23:30:45.237Z,7.90
2019-05-02T23:33:12.955Z,7.90
2019-05-02T23:35:37.369Z,7.90
2019-05-02T23:38:03.395Z,7.90
2019-05-02T23:40:30.163Z,8.00
2019-05-02T23:42:56.195Z,7.90
2019-05-02T23:45:22.635Z,8.00
2019-05-02T23:47:48.305Z,7.90
2019-05-02T23:50:14.319Z,7.90
2019-05-02T23:52:40.322Z,7.80
2019-05-02T23:55:06.346Z,7.70
2019-05-02T23:57:32.551Z,7.70
2019-05-02T23:59:59.210Z,7.50
